sensor_id;sensor_type;location;lat;lon;timestamp;temperature;humidity
20839;DHT22;10580;51.092;6.828;2023-03-13T00:01:17;10.50;1.00
20839;DHT22;10580;51.092;6.828;2023-03-13T00:03:43;10.60;1.00
20839;DHT22;10580;51.092;6.828;2023-03-13T00:06:09;10.60;1.00
20839;DHT22;10580;51.092;6.828;2023-03-13T00:08:34;10.70;1.00
20839;DHT22;10580;51.092;6.828;2023-03-13T00:11:08;10.70;1.00
20839;DHT22;10580;51.092;6.828;2023-03-13T00:13:34;10.70;1.00
20839;DHT22;10580;51.092;6.828;2023-03-13T00:16:01;10.70;1.00
20839;DHT22;10580;51.092;6.828;2023-03-13T00:18:27;10.70;1.00
20839;DHT22;10580;51.092;6.828;2023-03-13T00:21:05;10.70;1.00
20839;DHT22;10580;51.092;6.828;2023-03-13T00:23:32;10.70;1.00
20839;DHT22;10580;51.092;6.828;2023-03-13T00:26:00;10.70;1.00
20839;DHT22;10580;51.092;6.828;2023-03-13T00:28:31;10.80;1.00
20839;DHT22;10580;51.092;6.828;2023-03-13T00:31:12;10.80;1.00
20839;DHT22;10580;51.092;6.828;2023-03-13T00:33:40;10.80;1.00
20839;DHT22;10580;51.092;6.828;2023-03-13T00:36:11;10.80;1.00
20839;DHT22;10580;51.092;6.828;2023-03-13T00:38:37;10.90;1.00
20839;DHT22;10580;51.092;6.828;2023-03-13T00:41:07;10.80;1.00
20839;DHT22;10580;51.092;6.828;2023-03-13T00:43:34;10.90;4.40
20839;DHT22;10580;51.092;6.828;2023-03-13T00:46:00;10.80;12.70
20839;DHT22;10580;51.092;6.828;2023-03-13T00:48:26;10.80;18.50
20839;DHT22;10580;51.092;6.828;2023-03-13T00:50:52;10.80;28.10
20839;DHT22;10580;51.092;6.828;2023-03-13T00:53:18;10.80;30.40
20839;DHT22;10580;51.092;6.828;2023-03-13T00:55:52;10.80;40.40
20839;DHT22;10580;51.092;6.828;2023-03-13T00:58:18;10.70;42.20
20839;DHT22;10580;51.092;6.828;2023-03-13T01:00:43;10.70;45.50
20839;DHT22;10580;51.092;6.828;2023-03-13T01:03:09;10.70;46.50
20839;DHT22;10580;51.092;6.828;2023-03-13T01:05:35;10.80;45.10
20839;DHT22;10580;51.092;6.828;2023-03-13T01:08:00;10.80;41.90
20839;DHT22;10580;51.092;6.828;2023-03-13T01:10:26;10.80;31.80
20839;DHT22;10580;51.092;6.828;2023-03-13T01:12:51;10.90;32.50
20839;DHT22;10580;51.092;6.828;2023-03-13T01:15:17;10.90;30.80
20839;DHT22;10580;51.092;6.828;2023-03-13T01:17:44;10.90;31.60
20839;DHT22;10580;51.092;6.828;2023-03-13T01:20:11;11.00;27.70
20839;DHT22;10580;51.092;6.828;2023-03-13T01:22:36;11.00;28.40
20839;DHT22;10580;51.092;6.828;2023-03-13T01:25:03;11.10;14.60
20839;DHT22;10580;51.092;6.828;2023-03-13T01:27:29;11.10;17.50
20839;DHT22;10580;51.092;6.828;2023-03-13T01:29:54;11.10;20.20
20839;DHT22;10580;51.092;6.828;2023-03-13T01:32:20;11.10;19.70
20839;DHT22;10580;51.092;6.828;2023-03-13T01:34:46;11.10;23.60
20839;DHT22;10580;51.092;6.828;2023-03-13T01:37:11;11.20;22.70
20839;DHT22;10580;51.092;6.828;2023-03-13T01:39:37;11.20;25.30
20839;DHT22;10580;51.092;6.828;2023-03-13T01:42:03;11.20;31.70
20839;DHT22;10580;51.092;6.828;2023-03-13T01:44:46;11.10;37.90
20839;DHT22;10580;51.092;6.828;2023-03-13T01:47:12;11.10;51.30
20839;DHT22;10580;51.092;6.828;2023-03-13T01:49:38;11.10;54.70
20839;DHT22;10580;51.092;6.828;2023-03-13T01:52:30;11.10;57.40
20839;DHT22;10580;51.092;6.828;2023-03-13T01:55:00;11.10;67.40
20839;DHT22;10580;51.092;6.828;2023-03-13T01:57:33;11.00;73.10
20839;DHT22;10580;51.092;6.828;2023-03-13T02:00:05;11.10;82.20
20839;DHT22;10580;51.092;6.828;2023-03-13T02:02:36;11.20;81.10
20839;DHT22;10580;51.092;6.828;2023-03-13T02:05:03;11.20;82.30
20839;DHT22;10580;51.092;6.828;2023-03-13T02:10:03;11.20;93.10
20839;DHT22;10580;51.092;6.828;2023-03-13T02:12:37;11.20;99.90
20839;DHT22;10580;51.092;6.828;2023-03-13T02:15:15;11.20;99.90
20839;DHT22;10580;51.092;6.828;2023-03-13T02:17:41;11.10;99.90
20839;DHT22;10580;51.092;6.828;2023-03-13T02:20:08;11.10;99.90
20839;DHT22;10580;51.092;6.828;2023-03-13T02:28:11;11.00;99.90
20839;DHT22;10580;51.092;6.828;2023-03-13T02:30:37;10.90;99.90
20839;DHT22;10580;51.092;6.828;2023-03-13T02:33:04;10.90;99.90
20839;DHT22;10580;51.092;6.828;2023-03-13T02:35:31;10.90;99.90
20839;DHT22;10580;51.092;6.828;2023-03-13T02:38:00;10.80;99.90
20839;DHT22;10580;51.092;6.828;2023-03-13T02:40:30;10.80;99.90
20839;DHT22;10580;51.092;6.828;2023-03-13T02:43:00;10.80;99.90
20839;DHT22;10580;51.092;6.828;2023-03-13T02:45:26;10.70;99.90
20839;DHT22;10580;51.092;6.828;2023-03-13T02:47:51;10.70;99.90
20839;DHT22;10580;51.092;6.828;2023-03-13T02:50:17;10.70;99.90
20839;DHT22;10580;51.092;6.828;2023-03-13T02:52:49;10.70;99.90
20839;DHT22;10580;51.092;6.828;2023-03-13T02:55:23;10.70;99.90
20839;DHT22;10580;51.092;6.828;2023-03-13T02:57:50;10.70;99.90
20839;DHT22;10580;51.092;6.828;2023-03-13T03:00:16;10.70;99.90
20839;DHT22;10580;51.092;6.828;2023-03-13T03:02:45;10.60;99.90
20839;DHT22;10580;51.092;6.828;2023-03-13T03:05:11;10.60;99.90
20839;DHT22;10580;51.092;6.828;2023-03-13T03:07:37;10.60;99.90
20839;DHT22;10580;51.092;6.828;2023-03-13T03:10:03;10.60;99.90
20839;DHT22;10580;51.092;6.828;2023-03-13T03:12:29;10.60;99.90
20839;DHT22;10580;51.092;6.828;2023-03-13T03:14:55;10.60;99.90
20839;DHT22;10580;51.092;6.828;2023-03-13T03:17:20;10.60;99.90
20839;DHT22;10580;51.092;6.828;2023-03-13T03:19:46;10.70;99.90
20839;DHT22;10580;51.092;6.828;2023-03-13T03:22:11;10.70;99.90
20839;DHT22;10580;51.092;6.828;2023-03-13T03:24:37;10.80;99.90
20839;DHT22;10580;51.092;6.828;2023-03-13T03:27:03;10.80;99.90
20839;DHT22;10580;51.092;6.828;2023-03-13T03:29:28;10.80;99.90
20839;DHT22;10580;51.092;6.828;2023-03-13T03:31:54;10.80;99.90
20839;DHT22;10580;51.092;6.828;2023-03-13T03:34:20;10.80;99.90
20839;DHT22;10580;51.092;6.828;2023-03-13T03:36:46;10.90;99.90
20839;DHT22;10580;51.092;6.828;2023-03-13T03:39:11;10.90;99.90
20839;DHT22;10580;51.092;6.828;2023-03-13T03:41:37;10.90;99.90
20839;DHT22;10580;51.092;6.828;2023-03-13T03:44:03;10.90;99.90
20839;DHT22;10580;51.092;6.828;2023-03-13T03:46:29;10.90;99.90
20839;DHT22;10580;51.092;6.828;2023-03-13T03:48:55;10.90;99.90
20839;DHT22;10580;51.092;6.828;2023-03-13T03:51:21;10.90;99.90
20839;DHT22;10580;51.092;6.828;2023-03-13T03:53:47;10.90;99.90
20839;DHT22;10580;51.092;6.828;2023-03-13T03:56:13;10.90;99.90
20839;DHT22;10580;51.092;6.828;2023-03-13T03:58:39;10.90;99.90
20839;DHT22;10580;51.092;6.828;2023-03-13T04:01:04;10.90;99.90
20839;DHT22;10580;51.092;6.828;2023-03-13T04:03:30;10.90;99.90
20839;DHT22;10580;51.092;6.828;2023-03-13T04:05:56;10.90;99.90
20839;DHT22;10580;51.092;6.828;2023-03-13T04:08:22;10.90;99.90
20839;DHT22;10580;51.092;6.828;2023-03-13T04:10:47;10.90;99.90
20839;DHT22;10580;51.092;6.828;2023-03-13T04:13:13;11.00;99.90
20839;DHT22;10580;51.092;6.828;2023-03-13T04:15:40;11.00;99.90
20839;DHT22;10580;51.092;6.828;2023-03-13T04:18:05;11.10;99.90
20839;DHT22;10580;51.092;6.828;2023-03-13T04:20:31;11.10;99.90
20839;DHT22;10580;51.092;6.828;2023-03-13T04:22:57;11.20;99.90
20839;DHT22;10580;51.092;6.828;2023-03-13T04:25:23;11.10;99.90
20839;DHT22;10580;51.092;6.828;2023-03-13T04:27:48;11.20;99.90
20839;DHT22;10580;51.092;6.828;2023-03-13T04:30:14;11.20;99.90
20839;DHT22;10580;51.092;6.828;2023-03-13T04:32:40;11.20;99.90
20839;DHT22;10580;51.092;6.828;2023-03-13T04:35:06;11.30;99.90
20839;DHT22;10580;51.092;6.828;2023-03-13T04:37:31;11.30;99.90
20839;DHT22;10580;51.092;6.828;2023-03-13T04:39:57;11.30;99.90
20839;DHT22;10580;51.092;6.828;2023-03-13T04:42:23;11.30;99.90
20839;DHT22;10580;51.092;6.828;2023-03-13T04:44:49;11.40;99.90
20839;DHT22;10580;51.092;6.828;2023-03-13T04:47:14;11.40;99.90
20839;DHT22;10580;51.092;6.828;2023-03-13T04:49:40;11.40;99.90
20839;DHT22;10580;51.092;6.828;2023-03-13T04:52:06;11.40;99.90
20839;DHT22;10580;51.092;6.828;2023-03-13T04:54:31;11.40;99.90
20839;DHT22;10580;51.092;6.828;2023-03-13T04:56:57;11.50;99.90
20839;DHT22;10580;51.092;6.828;2023-03-13T04:59:23;11.50;99.90
20839;DHT22;10580;51.092;6.828;2023-03-13T05:01:48;11.60;99.90
20839;DHT22;10580;51.092;6.828;2023-03-13T05:04:14;11.60;99.90
20839;DHT22;10580;51.092;6.828;2023-03-13T05:06:39;11.60;99.90
20839;DHT22;10580;51.092;6.828;2023-03-13T05:09:05;11.60;99.90
20839;DHT22;10580;51.092;6.828;2023-03-13T05:11:32;11.60;99.90
20839;DHT22;10580;51.092;6.828;2023-03-13T05:13:57;11.60;99.90
20839;DHT22;10580;51.092;6.828;2023-03-13T05:16:23;11.60;99.90
20839;DHT22;10580;51.092;6.828;2023-03-13T05:18:49;11.60;99.90
20839;DHT22;10580;51.092;6.828;2023-03-13T05:21:14;11.70;99.90
20839;DHT22;10580;51.092;6.828;2023-03-13T05:23:40;11.80;99.90
20839;DHT22;10580;51.092;6.828;2023-03-13T05:26:05;11.90;99.90
20839;DHT22;10580;51.092;6.828;2023-03-13T05:28:31;12.10;99.90
20839;DHT22;10580;51.092;6.828;2023-03-13T05:30:56;12.20;99.90
20839;DHT22;10580;51.092;6.828;2023-03-13T05:33:22;12.20;99.90
20839;DHT22;10580;51.092;6.828;2023-03-13T05:35:48;12.30;99.90
20839;DHT22;10580;51.092;6.828;2023-03-13T05:38:14;12.40;99.90
20839;DHT22;10580;51.092;6.828;2023-03-13T05:40:39;12.40;99.90
20839;DHT22;10580;51.092;6.828;2023-03-13T05:43:05;12.50;99.90
20839;DHT22;10580;51.092;6.828;2023-03-13T05:45:30;12.50;99.90
20839;DHT22;10580;51.092;6.828;2023-03-13T05:47:56;12.60;99.90
20839;DHT22;10580;51.092;6.828;2023-03-13T05:50:23;12.70;99.90
20839;DHT22;10580;51.092;6.828;2023-03-13T05:52:49;12.70;99.90
20839;DHT22;10580;51.092;6.828;2023-03-13T05:55:15;12.80;99.90
20839;DHT22;10580;51.092;6.828;2023-03-13T05:57:44;12.80;99.90
20839;DHT22;10580;51.092;6.828;2023-03-13T06:00:10;12.80;99.90
20839;DHT22;10580;51.092;6.828;2023-03-13T06:02:36;12.80;99.90
20839;DHT22;10580;51.092;6.828;2023-03-13T06:05:02;12.80;99.90
20839;DHT22;10580;51.092;6.828;2023-03-13T06:07:27;12.80;99.90
20839;DHT22;10580;51.092;6.828;2023-03-13T06:09:53;12.80;99.90
20839;DHT22;10580;51.092;6.828;2023-03-13T06:12:18;12.80;99.90
20839;DHT22;10580;51.092;6.828;2023-03-13T06:14:44;12.80;99.90
20839;DHT22;10580;51.092;6.828;2023-03-13T06:17:10;12.70;99.90
20839;DHT22;10580;51.092;6.828;2023-03-13T06:19:35;12.70;99.90
20839;DHT22;10580;51.092;6.828;2023-03-13T06:22:01;12.60;99.90
20839;DHT22;10580;51.092;6.828;2023-03-13T06:24:26;12.60;99.90
20839;DHT22;10580;51.092;6.828;2023-03-13T06:26:52;12.60;99.90
20839;DHT22;10580;51.092;6.828;2023-03-13T06:29:18;12.50;99.90
20839;DHT22;10580;51.092;6.828;2023-03-13T06:31:43;12.50;99.90
20839;DHT22;10580;51.092;6.828;2023-03-13T06:34:14;12.50;99.90
20839;DHT22;10580;51.092;6.828;2023-03-13T06:36:39;12.60;99.90
20839;DHT22;10580;51.092;6.828;2023-03-13T06:39:05;12.70;99.90
20839;DHT22;10580;51.092;6.828;2023-03-13T06:41:30;12.80;99.90
20839;DHT22;10580;51.092;6.828;2023-03-13T06:43:57;12.80;99.90
20839;DHT22;10580;51.092;6.828;2023-03-13T06:46:23;12.80;99.90
20839;DHT22;10580;51.092;6.828;2023-03-13T06:48:49;12.90;99.90
20839;DHT22;10580;51.092;6.828;2023-03-13T06:51:17;13.00;99.90
20839;DHT22;10580;51.092;6.828;2023-03-13T06:53:43;13.00;99.90
20839;DHT22;10580;51.092;6.828;2023-03-13T06:56:09;13.30;99.90
20839;DHT22;10580;51.092;6.828;2023-03-13T06:58:35;13.30;99.90
20839;DHT22;10580;51.092;6.828;2023-03-13T07:01:13;13.40;94.10
20839;DHT22;10580;51.092;6.828;2023-03-13T07:03:39;13.40;90.00
20839;DHT22;10580;51.092;6.828;2023-03-13T07:06:08;13.50;87.60
20839;DHT22;10580;51.092;6.828;2023-03-13T07:08:35;13.60;75.90
20839;DHT22;10580;51.092;6.828;2023-03-13T07:11:07;13.60;54.10
20839;DHT22;10580;51.092;6.828;2023-03-13T07:13:33;13.60;50.90
20839;DHT22;10580;51.092;6.828;2023-03-13T07:16:03;13.60;52.00
20839;DHT22;10580;51.092;6.828;2023-03-13T07:18:29;13.70;43.50
20839;DHT22;10580;51.092;6.828;2023-03-13T07:20:57;13.80;24.00
20839;DHT22;10580;51.092;6.828;2023-03-13T07:23:24;13.80;22.20
20839;DHT22;10580;51.092;6.828;2023-03-13T07:25:54;13.80;22.80
20839;DHT22;10580;51.092;6.828;2023-03-13T07:28:20;13.80;27.80
20839;DHT22;10580;51.092;6.828;2023-03-13T07:30:46;13.80;28.80
20839;DHT22;10580;51.092;6.828;2023-03-13T07:33:12;13.80;18.70
20839;DHT22;10580;51.092;6.828;2023-03-13T07:35:37;13.90;12.00
20839;DHT22;10580;51.092;6.828;2023-03-13T07:38:03;13.90;7.10
20839;DHT22;10580;51.092;6.828;2023-03-13T07:40:29;13.90;7.00
20839;DHT22;10580;51.092;6.828;2023-03-13T07:42:54;14.00;8.20
20839;DHT22;10580;51.092;6.828;2023-03-13T07:45:20;14.00;13.60
20839;DHT22;10580;51.092;6.828;2023-03-13T07:47:45;14.00;14.40
20839;DHT22;10580;51.092;6.828;2023-03-13T07:50:11;14.00;6.90
20839;DHT22;10580;51.092;6.828;2023-03-13T07:52:36;14.00;11.20
20839;DHT22;10580;51.092;6.828;2023-03-13T07:55:02;14.10;1.00
20839;DHT22;10580;51.092;6.828;2023-03-13T07:57:28;14.10;1.30
20839;DHT22;10580;51.092;6.828;2023-03-13T07:59:53;14.10;1.00
20839;DHT22;10580;51.092;6.828;2023-03-13T08:02:19;14.10;1.00
20839;DHT22;10580;51.092;6.828;2023-03-13T08:04:44;14.10;1.00
20839;DHT22;10580;51.092;6.828;2023-03-13T08:07:11;14.00;1.00
20839;DHT22;10580;51.092;6.828;2023-03-13T08:09:37;14.00;1.00
20839;DHT22;10580;51.092;6.828;2023-03-13T08:12:03;14.00;1.00
20839;DHT22;10580;51.092;6.828;2023-03-13T08:14:29;14.00;1.00
20839;DHT22;10580;51.092;6.828;2023-03-13T08:16:54;14.00;1.00
20839;DHT22;10580;51.092;6.828;2023-03-13T08:19:20;14.00;1.00
20839;DHT22;10580;51.092;6.828;2023-03-13T08:21:45;13.90;1.00
20839;DHT22;10580;51.092;6.828;2023-03-13T08:24:11;13.90;1.00
20839;DHT22;10580;51.092;6.828;2023-03-13T08:26:39;13.90;1.00
20839;DHT22;10580;51.092;6.828;2023-03-13T08:29:10;13.90;3.60
20839;DHT22;10580;51.092;6.828;2023-03-13T08:31:41;13.90;2.20
20839;DHT22;10580;51.092;6.828;2023-03-13T08:34:07;13.90;1.40
20839;DHT22;10580;51.092;6.828;2023-03-13T08:36:34;14.00;4.50
20839;DHT22;10580;51.092;6.828;2023-03-13T08:39:05;14.00;1.00
20839;DHT22;10580;51.092;6.828;2023-03-13T08:41:35;14.10;1.00
20839;DHT22;10580;51.092;6.828;2023-03-13T08:44:05;14.20;1.00
20839;DHT22;10580;51.092;6.828;2023-03-13T08:46:33;14.20;1.00
20839;DHT22;10580;51.092;6.828;2023-03-13T08:48:59;14.20;1.00
20839;DHT22;10580;51.092;6.828;2023-03-13T08:54:08;14.30;1.00
20839;DHT22;10580;51.092;6.828;2023-03-13T08:56:33;14.30;1.00
20839;DHT22;10580;51.092;6.828;2023-03-13T08:59:01;14.30;1.40
20839;DHT22;10580;51.092;6.828;2023-03-13T09:01:32;14.30;14.10
20839;DHT22;10580;51.092;6.828;2023-03-13T09:03:58;14.30;24.70
20839;DHT22;10580;51.092;6.828;2023-03-13T09:06:24;14.30;23.50
20839;DHT22;10580;51.092;6.828;2023-03-13T09:08:50;14.20;26.20
20839;DHT22;10580;51.092;6.828;2023-03-13T09:11:18;14.30;34.00
20839;DHT22;10580;51.092;6.828;2023-03-13T09:13:46;14.30;38.00
20839;DHT22;10580;51.092;6.828;2023-03-13T09:16:14;14.40;34.80
20839;DHT22;10580;51.092;6.828;2023-03-13T09:18:40;14.40;33.00
20839;DHT22;10580;51.092;6.828;2023-03-13T09:21:09;14.40;32.00
20839;DHT22;10580;51.092;6.828;2023-03-13T09:23:36;14.50;47.00
20839;DHT22;10580;51.092;6.828;2023-03-13T09:26:01;14.50;36.50
20839;DHT22;10580;51.092;6.828;2023-03-13T09:28:27;14.60;22.40
20839;DHT22;10580;51.092;6.828;2023-03-13T09:30:53;14.70;21.80
20839;DHT22;10580;51.092;6.828;2023-03-13T09:33:20;14.70;18.50
20839;DHT22;10580;51.092;6.828;2023-03-13T09:35:48;14.70;11.80
20839;DHT22;10580;51.092;6.828;2023-03-13T09:38:20;14.70;12.30
20839;DHT22;10580;51.092;6.828;2023-03-13T09:40:48;14.80;19.70
20839;DHT22;10580;51.092;6.828;2023-03-13T09:46:02;14.90;5.90
20839;DHT22;10580;51.092;6.828;2023-03-13T09:48:38;15.00;9.50
20839;DHT22;10580;51.092;6.828;2023-03-13T09:51:22;15.00;1.00
20839;DHT22;10580;51.092;6.828;2023-03-13T09:56:38;15.20;1.00
20839;DHT22;10580;51.092;6.828;2023-03-13T10:01:57;15.50;1.00
20839;DHT22;10580;51.092;6.828;2023-03-13T10:04:37;15.60;1.00
20839;DHT22;10580;51.092;6.828;2023-03-13T10:07:04;15.80;1.00
20839;DHT22;10580;51.092;6.828;2023-03-13T10:09:34;16.00;1.00
20839;DHT22;10580;51.092;6.828;2023-03-13T10:12:20;16.40;1.00
20839;DHT22;10580;51.092;6.828;2023-03-13T10:15:08;16.40;1.00
20839;DHT22;10580;51.092;6.828;2023-03-13T10:17:40;16.20;1.00
20839;DHT22;10580;51.092;6.828;2023-03-13T10:20:31;16.20;1.00
20839;DHT22;10580;51.092;6.828;2023-03-13T10:23:06;16.10;1.00
20839;DHT22;10580;51.092;6.828;2023-03-13T10:25:36;16.30;1.00
20839;DHT22;10580;51.092;6.828;2023-03-13T10:28:10;16.50;1.00
20839;DHT22;10580;51.092;6.828;2023-03-13T10:30:37;16.70;99.90
20839;DHT22;10580;51.092;6.828;2023-03-13T10:33:16;16.70;99.90
20839;DHT22;10580;51.092;6.828;2023-03-13T10:35:43;16.70;99.90
20839;DHT22;10580;51.092;6.828;2023-03-13T10:38:14;16.70;99.90
20839;DHT22;10580;51.092;6.828;2023-03-13T10:40:41;16.90;77.90
20839;DHT22;10580;51.092;6.828;2023-03-13T10:43:19;16.90;1.00
20839;DHT22;10580;51.092;6.828;2023-03-13T10:45:45;16.70;99.90
20839;DHT22;10580;51.092;6.828;2023-03-13T10:48:18;16.90;99.90
20839;DHT22;10580;51.092;6.828;2023-03-13T10:50:49;16.90;1.00
20839;DHT22;10580;51.092;6.828;2023-03-13T10:55:56;16.80;99.90
20839;DHT22;10580;51.092;6.828;2023-03-13T10:58:46;16.90;46.70
20839;DHT22;10580;51.092;6.828;2023-03-13T11:01:22;17.10;99.90
20839;DHT22;10580;51.092;6.828;2023-03-13T11:03:50;17.10;99.90
20839;DHT22;10580;51.092;6.828;2023-03-13T11:06:24;17.10;99.90
20839;DHT22;10580;51.092;6.828;2023-03-13T11:09:04;17.10;99.90
20839;DHT22;10580;51.092;6.828;2023-03-13T11:11:30;17.20;99.90
20839;DHT22;10580;51.092;6.828;2023-03-13T11:14:11;17.10;99.90
20839;DHT22;10580;51.092;6.828;2023-03-13T11:19:42;16.90;1.00
20839;DHT22;10580;51.092;6.828;2023-03-13T11:50:54;17.30;99.90
20839;DHT22;10580;51.092;6.828;2023-03-13T11:56:42;17.50;99.90
20839;DHT22;10580;51.092;6.828;2023-03-13T12:01:52;18.00;99.90
20839;DHT22;10580;51.092;6.828;2023-03-13T12:04:30;18.50;1.00
20839;DHT22;10580;51.092;6.828;2023-03-13T12:07:04;18.40;99.90
20839;DHT22;10580;51.092;6.828;2023-03-13T12:09:44;18.40;1.00
20839;DHT22;10580;51.092;6.828;2023-03-13T12:17:39;17.60;1.00
20839;DHT22;10580;51.092;6.828;2023-03-13T12:20:25;17.40;1.00
20839;DHT22;10580;51.092;6.828;2023-03-13T12:31:09;17.50;99.90
20839;DHT22;10580;51.092;6.828;2023-03-13T12:34:32;17.70;1.00
20839;DHT22;10580;51.092;6.828;2023-03-13T12:39:30;17.90;1.00
20839;DHT22;10580;51.092;6.828;2023-03-13T12:44:38;17.70;1.00
20839;DHT22;10580;51.092;6.828;2023-03-13T12:47:13;17.60;99.90
20839;DHT22;10580;51.092;6.828;2023-03-13T12:52:44;17.30;1.00
20839;DHT22;10580;51.092;6.828;2023-03-13T12:58:12;17.60;1.00
20839;DHT22;10580;51.092;6.828;2023-03-13T13:00:36;17.70;1.00
20839;DHT22;10580;51.092;6.828;2023-03-13T13:03:19;17.70;99.90
20839;DHT22;10580;51.092;6.828;2023-03-13T13:06:06;17.80;99.90
20839;DHT22;10580;51.092;6.828;2023-03-13T13:14:00;17.70;99.90
20839;DHT22;10580;51.092;6.828;2023-03-13T13:16:26;17.50;99.90
20839;DHT22;10580;51.092;6.828;2023-03-13T13:18:52;17.30;99.90
20839;DHT22;10580;51.092;6.828;2023-03-13T13:21:23;17.10;99.90
20839;DHT22;10580;51.092;6.828;2023-03-13T13:23:52;17.20;99.90
20839;DHT22;10580;51.092;6.828;2023-03-13T13:29:00;17.30;99.90
20839;DHT22;10580;51.092;6.828;2023-03-13T13:31:55;17.40;99.90
20839;DHT22;10580;51.092;6.828;2023-03-13T13:39:42;17.30;99.90
20839;DHT22;10580;51.092;6.828;2023-03-13T13:45:03;17.00;99.90
20839;DHT22;10580;51.092;6.828;2023-03-13T13:47:31;16.90;99.90
20839;DHT22;10580;51.092;6.828;2023-03-13T13:49:58;17.00;99.90
20839;DHT22;10580;51.092;6.828;2023-03-13T13:52:32;17.00;99.90
20839;DHT22;10580;51.092;6.828;2023-03-13T13:54:58;16.90;99.90
20839;DHT22;10580;51.092;6.828;2023-03-13T13:57:26;17.00;1.00
20839;DHT22;10580;51.092;6.828;2023-03-13T14:00:15;17.00;1.00
20839;DHT22;10580;51.092;6.828;2023-03-13T14:02:51;17.10;1.00
20839;DHT22;10580;51.092;6.828;2023-03-13T14:07:57;17.00;1.00
20839;DHT22;10580;51.092;6.828;2023-03-13T14:10:40;17.00;1.00
20839;DHT22;10580;51.092;6.828;2023-03-13T14:13:15;17.10;1.00
20839;DHT22;10580;51.092;6.828;2023-03-13T14:15:44;17.20;1.00
20839;DHT22;10580;51.092;6.828;2023-03-13T14:20:52;17.50;1.00
20839;DHT22;10580;51.092;6.828;2023-03-13T14:23:34;17.60;1.00
20839;DHT22;10580;51.092;6.828;2023-03-13T14:28:46;17.80;99.90
20839;DHT22;10580;51.092;6.828;2023-03-13T14:31:30;17.80;1.00
20839;DHT22;10580;51.092;6.828;2023-03-13T14:34:01;17.60;1.00
20839;DHT22;10580;51.092;6.828;2023-03-13T14:36:27;17.40;99.90
20839;DHT22;10580;51.092;6.828;2023-03-13T14:38:54;17.20;99.90
20839;DHT22;10580;51.092;6.828;2023-03-13T14:41:50;17.10;99.90
20839;DHT22;10580;51.092;6.828;2023-03-13T14:44:22;17.00;99.90
20839;DHT22;10580;51.092;6.828;2023-03-13T14:46:53;16.90;99.90
20839;DHT22;10580;51.092;6.828;2023-03-13T14:49:22;16.90;99.90
20839;DHT22;10580;51.092;6.828;2023-03-13T14:52:14;16.90;99.90
20839;DHT22;10580;51.092;6.828;2023-03-13T14:54:58;16.80;99.90
20839;DHT22;10580;51.092;6.828;2023-03-13T14:57:27;16.80;99.90
20839;DHT22;10580;51.092;6.828;2023-03-13T14:59:54;16.80;99.90
20839;DHT22;10580;51.092;6.828;2023-03-13T15:02:21;16.70;99.90
20839;DHT22;10580;51.092;6.828;2023-03-13T15:07:12;16.60;99.90
20839;DHT22;10580;51.092;6.828;2023-03-13T15:09:43;16.60;99.90
20839;DHT22;10580;51.092;6.828;2023-03-13T15:15:28;16.50;99.90
20839;DHT22;10580;51.092;6.828;2023-03-13T15:17:53;16.40;99.90
20839;DHT22;10580;51.092;6.828;2023-03-13T15:20:19;16.40;1.00
20839;DHT22;10580;51.092;6.828;2023-03-13T15:22:47;16.40;1.00
20839;DHT22;10580;51.092;6.828;2023-03-13T15:25:21;16.50;1.00
20839;DHT22;10580;51.092;6.828;2023-03-13T15:27:48;16.50;1.00
20839;DHT22;10580;51.092;6.828;2023-03-13T15:30:19;16.40;1.00
20839;DHT22;10580;51.092;6.828;2023-03-13T15:32:45;16.40;1.00
20839;DHT22;10580;51.092;6.828;2023-03-13T15:35:28;16.40;1.00
20839;DHT22;10580;51.092;6.828;2023-03-13T15:37:55;16.30;1.00
20839;DHT22;10580;51.092;6.828;2023-03-13T15:40:21;16.40;1.00
20839;DHT22;10580;51.092;6.828;2023-03-13T15:42:49;16.30;1.00
20839;DHT22;10580;51.092;6.828;2023-03-13T15:45:14;16.40;1.00
20839;DHT22;10580;51.092;6.828;2023-03-13T15:47:40;16.60;1.00
20839;DHT22;10580;51.092;6.828;2023-03-13T15:50:11;16.70;1.00
20839;DHT22;10580;51.092;6.828;2023-03-13T15:52:36;16.80;1.00
20839;DHT22;10580;51.092;6.828;2023-03-13T15:55:02;17.00;1.00
20839;DHT22;10580;51.092;6.828;2023-03-13T15:57:28;17.00;1.00
20839;DHT22;10580;51.092;6.828;2023-03-13T15:59:54;17.00;1.00
20839;DHT22;10580;51.092;6.828;2023-03-13T16:02:21;17.00;1.00
20839;DHT22;10580;51.092;6.828;2023-03-13T16:04:48;17.00;99.90
20839;DHT22;10580;51.092;6.828;2023-03-13T16:07:16;16.90;99.90
20839;DHT22;10580;51.092;6.828;2023-03-13T16:09:43;16.70;99.90
20839;DHT22;10580;51.092;6.828;2023-03-13T16:12:10;16.50;99.90
20839;DHT22;10580;51.092;6.828;2023-03-13T16:14:36;16.40;99.90
20839;DHT22;10580;51.092;6.828;2023-03-13T16:17:05;16.30;99.90
20839;DHT22;10580;51.092;6.828;2023-03-13T16:19:34;16.30;99.90
20839;DHT22;10580;51.092;6.828;2023-03-13T16:22:00;16.20;99.90
20839;DHT22;10580;51.092;6.828;2023-03-13T16:24:26;16.10;99.90
20839;DHT22;10580;51.092;6.828;2023-03-13T16:26:52;16.00;99.90
20839;DHT22;10580;51.092;6.828;2023-03-13T16:29:18;15.90;99.90
20839;DHT22;10580;51.092;6.828;2023-03-13T16:31:43;15.90;99.90
20839;DHT22;10580;51.092;6.828;2023-03-13T16:34:09;15.70;99.90
20839;DHT22;10580;51.092;6.828;2023-03-13T16:36:35;15.70;99.90
20839;DHT22;10580;51.092;6.828;2023-03-13T16:39:07;15.60;99.90
20839;DHT22;10580;51.092;6.828;2023-03-13T16:41:34;15.50;99.90
20839;DHT22;10580;51.092;6.828;2023-03-13T16:44:00;15.50;99.90
20839;DHT22;10580;51.092;6.828;2023-03-13T16:46:38;15.40;99.90
20839;DHT22;10580;51.092;6.828;2023-03-13T16:49:04;15.40;99.90
20839;DHT22;10580;51.092;6.828;2023-03-13T16:51:31;15.30;99.90
20839;DHT22;10580;51.092;6.828;2023-03-13T16:53:58;15.20;99.90
20839;DHT22;10580;51.092;6.828;2023-03-13T16:58:53;15.20;99.90
20839;DHT22;10580;51.092;6.828;2023-03-13T17:01:21;15.10;99.90
20839;DHT22;10580;51.092;6.828;2023-03-13T17:03:49;15.00;99.90
20839;DHT22;10580;51.092;6.828;2023-03-13T17:06:18;15.00;99.90
20839;DHT22;10580;51.092;6.828;2023-03-13T17:08:44;15.00;99.90
20839;DHT22;10580;51.092;6.828;2023-03-13T17:11:14;15.00;99.90
20839;DHT22;10580;51.092;6.828;2023-03-13T17:13:46;14.90;1.00
20839;DHT22;10580;51.092;6.828;2023-03-13T17:16:24;14.80;1.00
20839;DHT22;10580;51.092;6.828;2023-03-13T17:18:52;14.70;99.90
20839;DHT22;10580;51.092;6.828;2023-03-13T17:21:23;14.70;1.00
20839;DHT22;10580;51.092;6.828;2023-03-13T17:23:49;14.70;49.30
20839;DHT22;10580;51.092;6.828;2023-03-13T17:26:24;14.70;99.90
20839;DHT22;10580;51.092;6.828;2023-03-13T17:28:52;14.60;1.00
20839;DHT22;10580;51.092;6.828;2023-03-13T17:31:19;14.60;1.00
20839;DHT22;10580;51.092;6.828;2023-03-13T17:33:46;14.60;1.00
20839;DHT22;10580;51.092;6.828;2023-03-13T17:36:17;14.60;1.00
20839;DHT22;10580;51.092;6.828;2023-03-13T17:38:45;14.50;99.90
20839;DHT22;10580;51.092;6.828;2023-03-13T17:41:12;14.50;1.00